Time;durP1;ratioP1;P1;durP2;ratioP2;P2;SDS_P1;SDS_P2;PMS_P1;PMS_P2;Temp;Humidity;BMP_temperature;BMP_pressure;BME280_temperature;BME280_humidity;BME280_pressure;Samples;Min_cycle;Max_cycle;Signal;HPM_P1;HPM_P2
2023/08/30 00:00:20;;;;;;;;;;;;;;;16.79;100.00;95496.58;110274;1278;22447;-92
2023/08/30 00:03:07;;;;;;;;;;;;;;;16.80;100.00;95491.88;110275;1275;22500;-93
2023/08/30 00:05:53;;;;;;;;;;;;;;;16.84;100.00;95489.80;110419;1272;22405;-91
2023/08/30 00:08:20;;;;;;;;;;;;;;;16.85;100.00;95490.02;110390;1279;22432;-92
2023/08/30 00:10:47;;;;;;;;;;;;;;;16.85;100.00;95497.27;110096;1276;125082;-92
2023/08/30 00:13:34;;;;;;;;;;;;;;;16.86;100.00;95497.81;110338;1279;22430;-92
2023/08/30 00:16:01;;;;;;;;;;;;;;;16.86;100.00;95494.45;110321;1271;124940;-91
2023/08/30 00:18:30;;;;;;;;;;;;;;;16.85;100.00;95494.48;110398;1276;22457;-92
2023/08/30 00:21:16;;;;;;;;;;;;;;;16.82;100.00;95498.09;110373;1272;22488;-92
2023/08/30 00:23:43;;;;;;;;;;;;;;;16.79;100.00;95498.77;110315;1278;124428;-92
2023/08/30 00:26:29;;;;;;;;;;;;;;;16.79;100.00;95494.58;110398;1279;23123;-92
2023/08/30 00:29:15;;;;;;;;;;;;;;;16.78;100.00;95493.95;110337;1276;124471;-92
2023/08/30 00:31:42;;;;;;;;;;;;;;;16.77;100.00;95490.21;110280;1272;22413;-92
2023/08/30 00:34:08;;;;;;;;;;;;;;;16.77;100.00;95484.48;110246;1275;125399;-92
2023/08/30 00:36:54;;;;;;;;;;;;;;;16.78;100.00;95481.82;110376;1278;23137;-92
2023/08/30 00:39:20;;;;;;;;;;;;;;;16.77;100.00;95480.02;110324;1275;22578;-92
2023/08/30 00:41:47;;;;;;;;;;;;;;;16.76;100.00;95470.08;110303;1275;124293;-92
2023/08/30 00:44:13;;;;;;;;;;;;;;;16.74;100.00;95468.05;110358;1275;22498;-91
2023/08/30 00:46:40;;;;;;;;;;;;;;;16.73;100.00;95471.98;110329;1278;124673;-91
2023/08/30 00:49:08;;;;;;;;;;;;;;;16.74;100.00;95478.34;110245;1278;22511;-91
2023/08/30 00:51:34;;;;;;;;;;;;;;;16.72;100.00;95477.37;110268;1271;124961;-92
2023/08/30 00:54:00;;;;;;;;;;;;;;;16.74;100.00;95475.61;110360;1272;22453;-92
2023/08/30 00:56:46;;;;;;;;;;;;;;;16.72;100.00;95478.95;110383;1272;22429;-92
2023/08/30 00:59:33;;;;;;;;;;;;;;;16.72;100.00;95477.84;110199;1275;124856;-92
2023/08/30 01:02:04;;;;;;;;;;;;;;;16.73;100.00;95474.80;110329;1278;22423;-92
2023/08/30 01:04:49;;;;;;;;;;;;;;;16.71;100.00;95476.36;110300;1272;124880;-91
2023/08/30 01:07:36;;;;;;;;;;;;;;;16.71;100.00;95478.52;110258;1279;22415;-93
2023/08/30 01:10:03;;;;;;;;;;;;;;;16.71;100.00;95478.88;110261;1278;124689;-91
2023/08/30 01:12:31;;;;;;;;;;;;;;;16.69;100.00;95475.64;110413;1275;22434;-92
2023/08/30 01:15:09;;;;;;;;;;;;;;;16.67;100.00;95469.80;110383;1278;22478;-91
2023/08/30 01:17:55;;;;;;;;;;;;;;;16.64;100.00;95463.50;110379;1275;22432;-92
2023/08/30 01:20:22;;;;;;;;;;;;;;;16.66;100.00;95462.41;110175;1279;22429;-92
2023/08/30 01:22:58;;;;;;;;;;;;;;;16.65;100.00;95461.36;110150;1272;124784;-92
2023/08/30 01:25:27;;;;;;;;;;;;;;;16.62;100.00;95464.94;110398;1279;23091;-91
2023/08/30 01:27:57;;;;;;;;;;;;;;;16.59;100.00;95468.55;110203;1272;125313;-92
2023/08/30 01:30:25;;;;;;;;;;;;;;;16.59;100.00;95463.30;110379;1266;22423;-91
2023/08/30 01:32:56;;;;;;;;;;;;;;;16.59;100.00;95465.16;110392;1275;22420;-92
2023/08/30 01:35:23;;;;;;;;;;;;;;;16.59;100.00;95472.30;110191;1276;124825;-92
2023/08/30 01:38:10;;;;;;;;;;;;;;;16.53;100.00;95476.39;110374;1279;22439;-91
2023/08/30 01:40:37;;;;;;;;;;;;;;;16.51;100.00;95475.00;110295;1279;124826;-92
2023/08/30 01:43:05;;;;;;;;;;;;;;;16.49;100.00;95474.25;110358;1279;22395;-93
2023/08/30 01:45:32;;;;;;;;;;;;;;;16.50;100.00;95475.20;110182;1279;124788;-91
2023/08/30 01:47:59;;;;;;;;;;;;;;;16.49;100.00;95475.24;110369;1273;22410;-92
2023/08/30 01:50:46;;;;;;;;;;;;;;;16.43;100.00;95478.52;110215;1272;22375;-92
2023/08/30 01:53:19;;;;;;;;;;;;;;;16.39;100.00;95484.73;110250;1275;124834;-92
2023/08/30 01:56:06;;;;;;;;;;;;;;;16.36;100.00;95485.38;110449;1273;22416;-92
2023/08/30 01:58:52;;;;;;;;;;;;;;;16.34;100.00;95480.95;110121;1279;124981;-91
2023/08/30 02:01:39;;;;;;;;;;;;;;;16.37;100.00;95486.80;110207;1279;22437;-91
2023/08/30 02:04:07;;;;;;;;;;;;;;;16.39;100.00;95484.52;110290;1275;125153;-91
2023/08/30 02:06:57;;;;;;;;;;;;;;;16.40;100.00;95481.29;110234;1278;22371;-92
2023/08/30 02:09:25;;;;;;;;;;;;;;;16.38;100.00;95483.98;110314;1279;22442;-91
2023/08/30 02:12:07;;;;;;;;;;;;;;;16.40;100.00;95477.09;110394;1271;22415;-92
2023/08/30 02:14:37;;;;;;;;;;;;;;;16.40;100.00;95479.88;110304;1278;22416;-92
2023/08/30 02:17:04;;;;;;;;;;;;;;;16.43;100.00;95485.01;110306;1273;124648;-91
2023/08/30 02:19:53;;;;;;;;;;;;;;;16.44;100.00;95482.57;110257;1279;22410;-91
2023/08/30 02:22:20;;;;;;;;;;;;;;;16.45;100.00;95482.52;110304;1279;124952;-92
2023/08/30 02:24:47;;;;;;;;;;;;;;;16.44;100.00;95479.27;110425;1279;22415;-92
2023/08/30 02:27:37;;;;;;;;;;;;;;;16.44;100.00;95469.88;110366;1272;23146;-92
2023/08/30 02:30:05;;;;;;;;;;;;;;;16.43;100.00;95463.95;110345;1272;22492;-92
2023/08/30 02:32:32;;;;;;;;;;;;;;;16.43;100.00;95467.19;110206;1272;218624;-92
2023/08/30 02:35:00;;;;;;;;;;;;;;;16.44;100.00;95467.27;110279;1279;125442;-91
2023/08/30 02:37:41;;;;;;;;;;;;;;;16.46;100.00;95466.55;110172;1277;22477;-92
2023/08/30 02:40:14;;;;;;;;;;;;;;;16.42;100.00;95467.32;110325;1272;125438;-92
2023/08/30 02:42:44;;;;;;;;;;;;;;;16.37;100.00;95467.30;110411;1279;22401;-92
2023/08/30 02:45:11;;;;;;;;;;;;;;;16.36;100.00;95463.08;110179;1279;22469;-92
2023/08/30 02:47:42;;;;;;;;;;;;;;;16.33;100.00;95465.56;110280;1279;124519;-91
2023/08/30 02:50:10;;;;;;;;;;;;;;;16.30;100.00;95465.95;110302;1273;22437;-91
2023/08/30 02:52:41;;;;;;;;;;;;;;;16.28;100.00;95462.52;110230;1273;124816;-91
2023/08/30 02:55:18;;;;;;;;;;;;;;;16.27;100.00;95458.98;110353;1279;22522;-92
2023/08/30 02:58:05;;;;;;;;;;;;;;;16.25;100.00;95454.06;110171;1272;124910;-92
2023/08/30 03:00:53;;;;;;;;;;;;;;;16.23;100.00;95446.27;110384;1277;22435;-92
2023/08/30 03:03:27;;;;;;;;;;;;;;;16.24;100.00;95443.20;110365;1276;23346;-91
2023/08/30 03:05:55;;;;;;;;;;;;;;;16.27;100.00;95439.88;110261;1279;123248;-92
2023/08/30 03:08:21;;;;;;;;;;;;;;;16.25;100.00;95440.73;110397;1272;22415;-92
2023/08/30 03:10:49;;;;;;;;;;;;;;;16.19;100.00;95442.55;110238;1278;125285;-92
2023/08/30 03:13:19;;;;;;;;;;;;;;;16.16;100.00;95446.08;110321;1272;22447;-92
2023/08/30 03:15:47;;;;;;;;;;;;;;;16.15;100.00;95451.10;110258;1272;124882;-91
2023/08/30 03:18:33;;;;;;;;;;;;;;;16.14;100.00;95458.46;110418;1278;22457;-91
2023/08/30 03:21:20;;;;;;;;;;;;;;;16.13;100.00;95461.50;110232;1279;22460;-91
2023/08/30 03:23:47;;;;;;;;;;;;;;;16.15;100.00;95463.63;110336;1276;125262;-91
2023/08/30 03:26:16;;;;;;;;;;;;;;;16.14;100.00;95466.34;110430;1279;22460;-92
2023/08/30 03:29:02;;;;;;;;;;;;;;;16.11;100.00;95471.30;110234;1272;124638;-92
2023/08/30 03:31:30;;;;;;;;;;;;;;;16.08;100.00;95471.36;110234;1279;22428;-91
2023/08/30 03:34:00;;;;;;;;;;;;;;;16.08;100.00;95470.40;110379;1279;124964;-91
2023/08/30 03:36:40;;;;;;;;;;;;;;;16.04;100.00;95473.48;110448;1276;22412;-92
2023/08/30 03:39:07;;;;;;;;;;;;;;;16.02;100.00;95480.91;110431;1278;22422;-90
2023/08/30 03:41:34;;;;;;;;;;;;;;;15.99;100.00;95477.61;110143;1276;124707;-91
2023/08/30 03:44:00;;;;;;;;;;;;;;;15.96;100.00;95479.46;110350;1276;22445;-91
2023/08/30 03:46:29;;;;;;;;;;;;;;;15.96;100.00;95481.92;110174;1273;125038;-91
2023/08/30 03:48:56;;;;;;;;;;;;;;;15.96;100.00;95478.09;110450;1276;22514;-91
2023/08/30 03:51:23;;;;;;;;;;;;;;;15.97;100.00;95479.20;110479;1278;22440;-91
2023/08/30 03:53:50;;;;;;;;;;;;;;;15.95;100.00;95479.08;110350;1278;125530;-91
2023/08/30 03:56:29;;;;;;;;;;;;;;;15.88;100.00;95481.41;110407;1278;23273;-91
2023/08/30 03:58:55;;;;;;;;;;;;;;;15.81;100.00;95485.80;110329;1278;124805;-90
2023/08/30 04:01:25;;;;;;;;;;;;;;;15.78;100.00;95485.54;110234;1278;22509;-91
2023/08/30 04:03:52;;;;;;;;;;;;;;;15.81;100.00;95483.02;110218;1271;124398;-92
2023/08/30 04:06:18;;;;;;;;;;;;;;;15.83;100.00;95480.34;110383;1273;22483;-91
2023/08/30 04:08:48;;;;;;;;;;;;;;;15.83;100.00;95481.23;110235;1278;22498;-91
2023/08/30 04:11:14;;;;;;;;;;;;;;;15.81;100.00;95476.48;110141;1279;124495;-91
2023/08/30 04:13:42;;;;;;;;;;;;;;;15.83;100.00;95481.48;110387;1279;22432;-91
2023/08/30 04:16:10;;;;;;;;;;;;;;;15.79;100.00;95478.70;110338;1273;125434;-92
2023/08/30 04:18:51;;;;;;;;;;;;;;;15.77;100.00;95479.95;110375;1278;22411;-91
2023/08/30 04:21:38;;;;;;;;;;;;;;;15.72;100.00;95477.45;110264;1273;124561;-90
2023/08/30 04:24:05;;;;;;;;;;;;;;;15.68;100.00;95475.67;110366;1273;22453;-91
2023/08/30 04:26:32;;;;;;;;;;;;;;;15.68;100.00;95473.83;110389;1278;22429;-90
2023/08/30 04:29:00;;;;;;;;;;;;;;;15.66;100.00;95480.20;110170;1278;124619;-91
2023/08/30 04:31:26;;;;;;;;;;;;;;;15.66;100.00;95483.81;110367;1278;22446;-92
2023/08/30 04:33:55;;;;;;;;;;;;;;;15.67;100.00;95480.98;110311;1273;124902;-91
2023/08/30 04:36:42;;;;;;;;;;;;;;;15.70;100.00;95487.17;110430;1278;22433;-91
2023/08/30 04:39:28;;;;;;;;;;;;;;;15.70;100.00;95487.80;110411;1278;22454;-91
2023/08/30 04:41:55;;;;;;;;;;;;;;;15.68;100.00;95488.66;110198;1278;124219;-92
2023/08/30 04:44:24;;;;;;;;;;;;;;;15.68;100.00;95493.41;110280;1279;22430;-91
2023/08/30 04:47:04;;;;;;;;;;;;;;;15.67;100.00;95490.02;110225;1278;125013;-91
2023/08/30 04:49:32;;;;;;;;;;;;;;;15.64;100.00;95491.10;110266;1274;22471;-91
2023/08/30 04:52:00;;;;;;;;;;;;;;;15.60;100.00;95487.71;110342;1274;124899;-92
2023/08/30 04:54:27;;;;;;;;;;;;;;;15.62;100.00;95490.64;110283;1272;22451;-90
2023/08/30 04:56:54;;;;;;;;;;;;;;;15.62;100.00;95491.97;110385;1276;22463;-91
2023/08/30 04:59:20;;;;;;;;;;;;;;;15.63;100.00;95495.02;110281;1270;124919;-91
2023/08/30 05:01:48;;;;;;;;;;;;;;;15.64;100.00;95496.98;110370;1273;22404;-91
2023/08/30 05:04:17;;;;;;;;;;;;;;;15.61;100.00;95494.70;110249;1279;124609;-90
2023/08/30 05:06:43;;;;;;;;;;;;;;;15.59;100.00;95493.89;110345;1278;22443;-92
2023/08/30 05:09:10;;;;;;;;;;;;;;;15.58;100.00;95495.15;110442;1273;22457;-92
2023/08/30 05:11:37;;;;;;;;;;;;;;;15.61;100.00;95500.63;110276;1278;125035;-92
2023/08/30 05:14:12;;;;;;;;;;;;;;;15.64;100.00;95504.83;110321;1273;22452;-91
2023/08/30 05:16:39;;;;;;;;;;;;;;;15.61;100.00;95506.59;110393;1278;124925;-91
2023/08/30 05:19:26;;;;;;;;;;;;;;;15.57;100.00;95501.16;110248;1279;22428;-91
2023/08/30 05:21:54;;;;;;;;;;;;;;;15.54;100.00;95497.70;110274;1272;125390;-91
2023/08/30 05:24:22;;;;;;;;;;;;;;;15.52;100.00;95494.48;110273;1279;23157;-91
2023/08/30 05:26:49;;;;;;;;;;;;;;;15.53;100.00;95492.60;110334;1279;23155;-91
2023/08/30 05:29:15;;;;;;;;;;;;;;;15.53;100.00;95492.33;110173;1273;125017;-91
2023/08/30 05:31:45;;;;;;;;;;;;;;;15.53;100.00;95497.64;110232;1279;23173;-91
2023/08/30 05:34:12;;;;;;;;;;;;;;;15.52;100.00;95499.70;110360;1278;125280;-91
2023/08/30 05:36:59;;;;;;;;;;;;;;;15.49;100.00;95500.48;110447;1278;22463;-92
2023/08/30 05:39:26;;;;;;;;;;;;;;;15.47;100.00;95500.14;110211;1264;22479;-92
2023/08/30 05:42:08;;;;;;;;;;;;;;;15.47;100.00;95501.04;110379;1274;22427;-89
2023/08/30 05:44:35;;;;;;;;;;;;;;;15.48;100.00;95508.27;110408;1277;22528;-91
2023/08/30 05:47:02;;;;;;;;;;;;;;;15.49;100.00;95509.86;110154;1273;124763;-91
2023/08/30 05:49:49;;;;;;;;;;;;;;;15.47;100.00;95508.58;110460;1270;22454;-91
2023/08/30 05:52:40;;;;;;;;;;;;;;;15.46;100.00;95513.64;110245;1278;124578;-91
2023/08/30 05:55:08;;;;;;;;;;;;;;;15.47;100.00;95507.80;110256;1273;22458;-92
2023/08/30 05:57:55;;;;;;;;;;;;;;;15.49;100.00;95509.77;110125;1279;125188;-91
2023/08/30 06:00:25;;;;;;;;;;;;;;;15.52;100.00;95509.23;110269;1279;22491;-91
2023/08/30 06:03:12;;;;;;;;;;;;;;;15.54;100.00;95510.84;110221;1275;22455;-92
2023/08/30 06:05:39;;;;;;;;;;;;;;;15.56;100.00;95510.46;110279;1274;124114;-91
2023/08/30 06:08:07;;;;;;;;;;;;;;;15.59;100.00;95508.77;110402;1279;22424;-91
2023/08/30 06:10:35;;;;;;;;;;;;;;;15.58;100.00;95508.69;110290;1272;124491;-91
2023/08/30 06:13:03;;;;;;;;;;;;;;;15.54;100.00;95509.34;110402;1279;22507;-91
2023/08/30 06:15:31;;;;;;;;;;;;;;;15.54;100.00;95509.48;110307;1279;23305;-91
2023/08/30 06:17:58;;;;;;;;;;;;;;;15.54;100.00;95512.09;110356;1272;124314;-92
2023/08/30 06:20:26;;;;;;;;;;;;;;;15.50;100.00;95515.75;110527;1278;22429;-91
2023/08/30 06:22:53;;;;;;;;;;;;;;;15.50;100.00;95518.16;110327;1278;125297;-92
2023/08/30 06:25:20;;;;;;;;;;;;;;;15.52;100.00;95516.36;110272;1278;23070;-91
2023/08/30 06:27:57;;;;;;;;;;;;;;;15.53;100.00;95516.95;110271;1275;124688;-91
2023/08/30 06:30:28;;;;;;;;;;;;;;;15.51;100.00;95518.91;110442;1278;23216;-90
2023/08/30 06:32:56;;;;;;;;;;;;;;;15.51;100.00;95520.58;110496;1278;22446;-91
2023/08/30 06:35:23;;;;;;;;;;;;;;;15.53;100.00;95523.70;110227;1279;125020;-92
2023/08/30 06:37:55;;;;;;;;;;;;;;;15.55;100.00;95524.79;110315;1271;22426;-92
2023/08/30 06:40:35;;;;;;;;;;;;;;;15.56;100.00;95524.08;110250;1274;124569;-90
2023/08/30 06:43:02;;;;;;;;;;;;;;;15.57;100.00;95520.48;110430;1272;22532;-91
2023/08/30 06:45:29;;;;;;;;;;;;;;;15.58;100.00;95520.41;110471;1278;22449;-92
2023/08/30 06:47:56;;;;;;;;;;;;;;;15.60;100.00;95527.77;110303;1279;124997;-91
2023/08/30 06:50:26;;;;;;;;;;;;;;;15.61;100.00;95532.10;110370;1275;23360;-92
2023/08/30 06:52:54;;;;;;;;;;;;;;;15.62;100.00;95537.09;110360;1272;124530;-91
2023/08/30 06:55:21;;;;;;;;;;;;;;;15.57;100.00;95533.69;110269;1273;22419;-92
2023/08/30 06:58:07;;;;;;;;;;;;;;;15.55;100.00;95533.16;110228;1276;125211;-91
2023/08/30 07:00:34;;;;;;;;;;;;;;;15.58;100.00;95534.99;110377;1272;23457;-91
2023/08/30 07:03:15;;;;;;;;;;;;;;;15.57;100.00;95538.75;110393;1278;23152;-92
2023/08/30 07:05:43;;;;;;;;;;;;;;;15.55;100.00;95539.45;110151;1279;124696;-92
2023/08/30 07:08:09;;;;;;;;;;;;;;;15.55;100.00;95538.15;110286;1272;22436;-91
2023/08/30 07:10:36;;;;;;;;;;;;;;;15.56;100.00;95540.67;110321;1272;124549;-92
2023/08/30 07:13:10;;;;;;;;;;;;;;;15.55;100.00;95538.24;110198;1279;22443;-92
2023/08/30 07:15:36;;;;;;;;;;;;;;;15.57;100.00;95542.14;110303;1273;22548;-92
2023/08/30 07:18:09;;;;;;;;;;;;;;;15.57;100.00;95538.93;110225;1274;22420;-91
2023/08/30 07:20:38;;;;;;;;;;;;;;;15.59;100.00;95538.34;110370;1279;22509;-91
2023/08/30 07:23:04;;;;;;;;;;;;;;;15.56;100.00;95543.09;110156;1278;124703;-91
2023/08/30 07:25:33;;;;;;;;;;;;;;;15.55;100.00;95543.85;110423;1278;22468;-91
2023/08/30 07:28:00;;;;;;;;;;;;;;;15.54;100.00;95550.43;110145;1273;124675;-91
2023/08/30 07:30:29;;;;;;;;;;;;;;;15.52;100.00;95552.39;110218;1276;23043;-91
2023/08/30 07:32:56;;;;;;;;;;;;;;;15.52;100.00;95554.22;110429;1278;23119;-92
2023/08/30 07:35:23;;;;;;;;;;;;;;;15.53;100.00;95555.54;110201;1273;124440;-91
2023/08/30 07:37:50;;;;;;;;;;;;;;;15.56;100.00;95557.95;110260;1279;23177;-90
2023/08/30 07:40:17;;;;;;;;;;;;;;;15.57;100.00;95557.45;110352;1278;125077;-92
2023/08/30 07:42:43;;;;;;;;;;;;;;;15.56;100.00;95557.84;110377;1272;22434;-91
2023/08/30 07:45:13;;;;;;;;;;;;;;;15.59;100.00;95555.98;110347;1272;22388;-92
2023/08/30 07:47:40;;;;;;;;;;;;;;;15.59;100.00;95556.64;110192;1276;124722;-91
2023/08/30 07:50:07;;;;;;;;;;;;;;;15.55;100.00;95557.73;110308;1272;22443;-91
2023/08/30 07:52:35;;;;;;;;;;;;;;;15.51;100.00;95559.48;110271;1272;124484;-91
2023/08/30 07:55:03;;;;;;;;;;;;;;;15.48;100.00;95559.23;110231;1279;22442;-90
2023/08/30 07:57:30;;;;;;;;;;;;;;;15.46;100.00;95558.56;110258;1276;22400;-91
2023/08/30 07:59:58;;;;;;;;;;;;;;;15.46;100.00;95554.95;110218;1276;124608;-91
2023/08/30 08:02:25;;;;;;;;;;;;;;;15.47;100.00;95557.43;110457;1270;22426;-91
2023/08/30 08:04:52;;;;;;;;;;;;;;;15.47;100.00;95563.39;110354;1278;124748;-90
2023/08/30 08:07:18;;;;;;;;;;;;;;;15.48;100.00;95568.91;110393;1278;22457;-92
2023/08/30 08:09:45;;;;;;;;;;;;;;;15.49;100.00;95574.59;110149;1272;125402;-91
2023/08/30 08:12:12;;;;;;;;;;;;;;;15.45;100.00;95576.02;110209;1279;22460;-91
2023/08/30 08:14:43;;;;;;;;;;;;;;;15.44;100.00;95572.64;110214;1277;22429;-90
2023/08/30 08:17:12;;;;;;;;;;;;;;;15.40;100.00;95572.86;110201;1270;124467;-91
2023/08/30 08:19:40;;;;;;;;;;;;;;;15.37;100.00;95578.00;110396;1278;22402;-91
2023/08/30 08:22:06;;;;;;;;;;;;;;;15.34;100.00;95582.65;110255;1274;124951;-92
2023/08/30 08:24:33;;;;;;;;;;;;;;;15.31;100.00;95586.63;110435;1272;22468;-92
2023/08/30 08:27:01;;;;;;;;;;;;;;;15.32;100.00;95590.67;110420;1275;22403;-90
2023/08/30 08:29:29;;;;;;;;;;;;;;;15.36;100.00;95590.73;110094;1274;123671;-91
2023/08/30 08:31:56;;;;;;;;;;;;;;;15.39;100.00;95590.85;110417;1278;23071;-92
2023/08/30 08:34:23;;;;;;;;;;;;;;;15.40;100.00;95595.08;110311;1275;124840;-91
2023/08/30 08:36:49;;;;;;;;;;;;;;;15.43;100.00;95595.66;110403;1272;22482;-91
2023/08/30 08:39:20;;;;;;;;;;;;;;;15.48;100.00;95587.60;110243;1276;22458;-92
2023/08/30 08:41:48;;;;;;;;;;;;;;;15.53;100.00;95584.45;110394;1270;124691;-92
2023/08/30 08:44:15;;;;;;;;;;;;;;;15.55;100.00;95587.11;110216;1275;22482;-91
2023/08/30 08:46:42;;;;;;;;;;;;;;;15.51;100.00;95592.86;110182;1279;125390;-92
2023/08/30 08:49:19;;;;;;;;;;;;;;;15.51;100.00;95593.56;110421;1278;22430;-90
2023/08/30 08:51:47;;;;;;;;;;;;;;;15.50;100.00;95593.13;110335;1278;124634;-91
2023/08/30 08:54:15;;;;;;;;;;;;;;;15.46;100.00;95589.66;110473;1272;22438;-91
2023/08/30 08:56:44;;;;;;;;;;;;;;;15.43;100.00;95591.77;110328;1272;23015;-91
2023/08/30 08:59:10;;;;;;;;;;;;;;;15.42;100.00;95590.61;110305;1278;125512;-91
2023/08/30 09:01:39;;;;;;;;;;;;;;;15.41;100.00;95586.55;110410;1272;22435;-91
2023/08/30 09:04:26;;;;;;;;;;;;;;;15.40;100.00;95587.16;110321;1278;125575;-91
2023/08/30 09:06:53;;;;;;;;;;;;;;;15.37;100.00;95590.61;110208;1272;22407;-91
2023/08/30 09:09:20;;;;;;;;;;;;;;;15.34;100.00;95594.73;110481;1271;22440;-91
2023/08/30 09:11:50;;;;;;;;;;;;;;;15.30;100.00;95594.40;110285;1273;124868;-92
2023/08/30 09:14:17;;;;;;;;;;;;;;;15.29;100.00;95593.45;110247;1271;22441;-91
2023/08/30 09:17:00;;;;;;;;;;;;;;;15.27;100.00;95595.36;110315;1278;125210;-91
2023/08/30 09:19:27;;;;;;;;;;;;;;;15.25;100.00;95602.24;110447;1278;22532;-91
2023/08/30 09:21:54;;;;;;;;;;;;;;;15.26;100.00;95605.56;110283;1279;124983;-91
2023/08/30 09:24:21;;;;;;;;;;;;;;;15.28;100.00;95602.11;110240;1273;22454;-91
2023/08/30 09:26:50;;;;;;;;;;;;;;;15.31;100.00;95600.30;110441;1278;22436;-92
2023/08/30 09:29:19;;;;;;;;;;;;;;;15.35;100.00;95604.70;110194;1272;124802;-91
2023/08/30 09:31:50;;;;;;;;;;;;;;;15.38;100.00;95601.26;110348;1278;22483;-91
2023/08/30 09:34:17;;;;;;;;;;;;;;;15.40;100.00;95603.02;110273;1273;125177;-91
2023/08/30 09:36:46;;;;;;;;;;;;;;;15.44;100.00;95601.06;110219;1274;22451;-91
2023/08/30 09:39:14;;;;;;;;;;;;;;;15.46;100.00;95602.88;110371;1272;22483;-91
2023/08/30 09:41:42;;;;;;;;;;;;;;;15.44;100.00;95606.45;110204;1276;124745;-91
2023/08/30 09:44:12;;;;;;;;;;;;;;;15.43;100.00;95605.59;110357;1279;23347;-91
2023/08/30 09:46:46;;;;;;;;;;;;;;;15.43;100.00;95603.80;110274;1279;125144;-91
2023/08/30 09:49:13;;;;;;;;;;;;;;;15.47;100.00;95598.42;110473;1278;22449;-91
2023/08/30 09:51:43;;;;;;;;;;;;;;;15.52;100.00;95596.39;110232;1274;22445;-91
2023/08/30 09:54:16;;;;;;;;;;;;;;;15.55;100.00;95592.30;110281;1272;22514;-90
2023/08/30 09:56:43;;;;;;;;;;;;;;;15.58;100.00;95594.02;110403;1272;22424;-90
2023/08/30 09:59:14;;;;;;;;;;;;;;;15.56;100.00;95593.61;110259;1272;124765;-91
2023/08/30 10:01:43;;;;;;;;;;;;;;;15.54;100.00;95592.27;110505;1278;23233;-91
2023/08/30 10:04:10;;;;;;;;;;;;;;;15.56;100.00;95597.27;110313;1276;125142;-92
2023/08/30 10:06:38;;;;;;;;;;;;;;;15.56;100.00;95598.69;110216;1274;22420;-91
2023/08/30 10:09:05;;;;;;;;;;;;;;;15.53;100.00;95595.29;110322;1278;22465;-91
2023/08/30 10:11:35;;;;;;;;;;;;;;;15.53;100.00;95600.20;110202;1271;124642;-92
2023/08/30 10:14:05;;;;;;;;;;;;;;;15.54;100.00;95598.92;110380;1278;23079;-92
2023/08/30 10:16:37;;;;;;;;;;;;;;;15.56;100.00;95601.94;110307;1278;124825;-90
2023/08/30 10:19:07;;;;;;;;;;;;;;;15.61;100.00;95605.07;110423;1264;22989;-91
2023/08/30 10:21:34;;;;;;;;;;;;;;;15.67;100.00;95605.16;110416;1272;22415;-91
2023/08/30 10:24:03;;;;;;;;;;;;;;;15.70;100.00;95600.41;110121;1272;125194;-91
2023/08/30 10:26:30;;;;;;;;;;;;;;;15.73;100.00;95602.40;110148;1279;22443;-92
2023/08/30 10:28:57;;;;;;;;;;;;;;;15.75;100.00;95603.76;110227;1272;124808;-91
2023/08/30 10:31:24;;;;;;;;;;;;;;;15.74;100.00;95604.20;110398;1278;22416;-91
2023/08/30 10:33:55;;;;;;;;;;;;;;;15.74;100.00;95604.79;110124;1273;125059;-90
2023/08/30 10:36:23;;;;;;;;;;;;;;;15.72;100.00;95598.27;110374;1271;22529;-91
2023/08/30 10:38:50;;;;;;;;;;;;;;;15.73;100.00;95597.96;110266;1279;22460;-91
2023/08/30 10:41:20;;;;;;;;;;;;;;;15.74;100.00;95598.71;110227;1271;124408;-92
2023/08/30 10:43:57;;;;;;;;;;;;;;;15.72;100.00;95599.04;110403;1271;22434;-91
2023/08/30 10:46:34;;;;;;;;;;;;;;;15.69;100.00;95606.84;110190;1271;125114;-91
2023/08/30 10:49:27;;;;;;;;;;;;;;;15.66;100.00;95607.67;110320;1279;22383;-91
2023/08/30 10:51:57;;;;;;;;;;;;;;;15.67;100.00;95601.09;110159;1279;124952;-91
2023/08/30 10:54:24;;;;;;;;;;;;;;;15.67;100.00;95604.07;110331;1272;23757;-91
2023/08/30 10:56:51;;;;;;;;;;;;;;;15.65;100.00;95607.91;110341;1278;22504;-90
2023/08/30 10:59:18;;;;;;;;;;;;;;;15.59;100.00;95599.41;110197;1277;124678;-91
2023/08/30 11:01:46;;;;;;;;;;;;;;;15.56;100.00;95597.91;110212;1279;22442;-91
2023/08/30 11:04:14;;;;;;;;;;;;;;;15.55;100.00;95594.64;110191;1278;124804;-91
2023/08/30 11:06:43;;;;;;;;;;;;;;;15.55;100.00;95594.75;110383;1267;23267;-91
2023/08/30 11:09:12;;;;;;;;;;;;;;;15.57;100.00;95596.42;110388;1278;22426;-91
2023/08/30 11:11:38;;;;;;;;;;;;;;;15.60;100.00;95595.98;110153;1279;125036;-90
2023/08/30 11:14:10;;;;;;;;;;;;;;;15.60;100.00;95598.54;110430;1278;22418;-92
2023/08/30 11:16:38;;;;;;;;;;;;;;;15.57;100.00;95595.43;110219;1278;125763;-91
2023/08/30 11:19:05;;;;;;;;;;;;;;;15.56;100.00;95599.05;110214;1272;22425;-91
2023/08/30 11:21:32;;;;;;;;;;;;;;;15.54;100.00;95597.61;110447;1277;22435;-92
2023/08/30 11:23:59;;;;;;;;;;;;;;;15.51;100.00;95594.47;110233;1265;124614;-91
2023/08/30 11:26:26;;;;;;;;;;;;;;;15.52;100.00;95591.44;110280;1278;22482;-91
2023/08/30 11:28:53;;;;;;;;;;;;;;;15.54;100.00;95591.48;110306;1271;124915;-91
2023/08/30 11:31:22;;;;;;;;;;;;;;;15.54;100.00;95588.81;110267;1271;22459;-91
2023/08/30 11:33:53;;;;;;;;;;;;;;;15.54;100.00;95589.91;110167;1276;124946;-93
2023/08/30 11:36:20;;;;;;;;;;;;;;;15.51;100.00;95595.61;110385;1278;22441;-91
2023/08/30 11:38:48;;;;;;;;;;;;;;;15.49;100.00;95599.77;110300;1272;22617;-91
2023/08/30 11:41:14;;;;;;;;;;;;;;;15.49;100.00;95600.88;110294;1278;124716;-91
2023/08/30 11:43:41;;;;;;;;;;;;;;;15.48;100.00;95604.94;110381;1272;23274;-92
2023/08/30 11:46:12;;;;;;;;;;;;;;;15.48;100.00;95607.86;110279;1275;124610;-90
2023/08/30 11:48:39;;;;;;;;;;;;;;;15.45;100.00;95609.94;110170;1273;22452;-91
2023/08/30 11:51:07;;;;;;;;;;;;;;;15.44;100.00;95609.80;110418;1272;23256;-92
2023/08/30 11:53:54;;;;;;;;;;;;;;;15.45;100.00;95614.36;110222;1278;124681;-91
2023/08/30 11:56:41;;;;;;;;;;;;;;;15.44;100.00;95613.98;110365;1275;22506;-90
2023/08/30 11:59:17;;;;;;;;;;;;;;;15.41;100.00;95614.98;110270;1271;124629;-91
2023/08/30 12:01:44;;;;;;;;;;;;;;;15.38;100.00;95619.38;110422;1277;22521;-91
2023/08/30 12:04:11;;;;;;;;;;;;;;;15.35;100.00;95621.73;110091;1274;124778;-91
2023/08/30 12:06:51;;;;;;;;;;;;;;;15.34;100.00;95622.12;110405;1278;22441;-91
2023/08/30 12:09:21;;;;;;;;;;;;;;;15.33;100.00;95618.44;110382;1278;22498;-91
2023/08/30 12:11:49;;;;;;;;;;;;;;;15.32;100.00;95616.02;110296;1272;125319;-91
2023/08/30 12:14:16;;;;;;;;;;;;;;;15.34;100.00;95612.23;110316;1272;23313;-90
2023/08/30 12:16:44;;;;;;;;;;;;;;;15.34;100.00;95614.86;110289;1275;124614;-91
2023/08/30 12:19:12;;;;;;;;;;;;;;;15.31;100.00;95611.66;110191;1274;22442;-92
2023/08/30 12:21:42;;;;;;;;;;;;;;;15.29;100.00;95614.02;110373;1278;23061;-91
2023/08/30 12:24:09;;;;;;;;;;;;;;;15.32;100.00;95618.05;110289;1271;124627;-91
2023/08/30 12:26:39;;;;;;;;;;;;;;;15.31;100.00;95620.88;110383;1272;22520;-91
2023/08/30 12:29:06;;;;;;;;;;;;;;;15.30;100.00;95619.96;110081;1273;124598;-91
2023/08/30 12:31:34;;;;;;;;;;;;;;;15.30;100.00;95621.73;110218;1273;22454;-92
2023/08/30 12:34:07;;;;;;;;;;;;;;;15.31;100.00;95616.05;110259;1275;124990;-90
2023/08/30 12:36:37;;;;;;;;;;;;;;;15.31;100.00;95613.59;110407;1278;22506;-91
2023/08/30 12:39:05;;;;;;;;;;;;;;;15.31;100.00;95614.33;110359;1279;23099;-91
2023/08/30 12:41:32;;;;;;;;;;;;;;;15.30;100.00;95614.73;110097;1274;124945;-92